Check out our new BloomSky Weather System.

Active alerts


No alerts


Thunder radar  blitzortung!


Rain radar more information rain snow radar


Visit our other weather sites:

Template documentation
and downloads

And another site



Weather Underground History page Text

Daily Summary for November 2, 2017 Units:  English    Metric   Both
« Previous Day
Next Day »
Daily Weekly Monthly Yearly Custom
  High: Low: Average:
Temperature: 89.1 °F 72.1 °F 78.6 °F
Dew Point: 77.4 °F 71.8 °F 73.8 °F
Humidity: 99 % 63 % 87 %
Wind Speed: 11.0 mph 0.0 mph 3.8 mph
Wind Gust: 22.0 mph - -
Wind:- - SSE
Pressure: 30.03 in 29.89 in -
Precipitation: 0.00 in    
Historical Graphs
 
 
Tabular Data for November 2, 2017
Time Temperature Dew Point Pressure Wind Wind Speed Wind Gust Humidity Rainfall Rate (Hourly)
00:02 74.1 °F 72.7 °F 29.89 in SW 5.0 mph 7.0 mph 95 % 0.00 in
00:07 74.1 °F 72.7 °F 29.89 in SSE 4.0 mph 8.0 mph 95 % 0.00 in
00:09 73.9 °F 72.5 °F 29.89 in SSE 4.0 mph 8.0 mph 95 % 0.00 in
00:14 73.9 °F 72.5 °F 29.89 in SSE 2.0 mph 8.0 mph 95 % 0.00 in
00:15 73.9 °F 72.5 °F 29.89 in SSW 4.0 mph 8.0 mph 95 % 0.00 in
00:20 73.9 °F 72.7 °F 29.89 in SSE 3.0 mph 7.0 mph 96 % 0.00 in
00:25 73.8 °F 72.5 °F 29.89 in South 4.0 mph 7.0 mph 96 % 0.00 in
00:30 73.8 °F 72.5 °F 29.89 in SE 2.0 mph 6.0 mph 96 % 0.00 in
00:35 73.6 °F 72.3 °F 29.89 in South 3.0 mph 7.0 mph 96 % 0.00 in
00:40 73.6 °F 72.3 °F 29.89 in SSE 2.0 mph 7.0 mph 96 % 0.00 in
00:45 73.4 °F 72.1 °F 29.90 in ESE 1.0 mph 7.0 mph 96 % 0.00 in
00:50 73.2 °F 72.3 °F 29.90 in SE 1.0 mph 5.0 mph 97 % 0.00 in
00:55 73.2 °F 72.3 °F 29.90 in SSE 2.0 mph 5.0 mph 97 % 0.00 in
01:00 73.2 °F 72.3 °F 29.90 in SSE 3.0 mph 5.0 mph 97 % 0.00 in
01:05 73.0 °F 72.1 °F 29.90 in SSE 3.0 mph 5.0 mph 97 % 0.00 in
01:10 73.0 °F 72.1 °F 29.90 in SSW 2.0 mph 5.0 mph 97 % 0.00 in
01:15 73.0 °F 72.1 °F 29.90 in South 2.0 mph 5.0 mph 97 % 0.00 in
01:20 73.0 °F 72.1 °F 29.90 in SSE 4.0 mph 5.0 mph 97 % 0.00 in
01:25 73.0 °F 72.1 °F 29.90 in South 1.0 mph 5.0 mph 97 % 0.00 in
01:30 73.2 °F 72.3 °F 29.90 in SE 3.0 mph 6.0 mph 97 % 0.00 in
01:35 73.2 °F 72.3 °F 29.90 in SE 5.0 mph 6.0 mph 97 % 0.00 in
01:40 73.2 °F 72.3 °F 29.90 in South 3.0 mph 7.0 mph 97 % 0.00 in
01:45 73.2 °F 72.3 °F 29.90 in ESE 4.0 mph 7.0 mph 97 % 0.00 in
01:50 73.4 °F 72.5 °F 29.90 in SE 4.0 mph 7.0 mph 97 % 0.00 in
01:55 73.6 °F 72.7 °F 29.90 in South 2.0 mph 6.0 mph 97 % 0.00 in
02:00 73.6 °F 72.7 °F 29.90 in SE 2.0 mph 6.0 mph 97 % 0.00 in
02:01 73.6 °F 72.7 °F 29.90 in SE 4.0 mph 6.0 mph 97 % 0.00 in
02:06 73.6 °F 72.7 °F 29.90 in SSE 4.0 mph 6.0 mph 97 % 0.00 in
02:11 73.6 °F 72.7 °F 29.90 in SE 2.0 mph 5.0 mph 97 % 0.00 in
02:16 73.6 °F 72.7 °F 29.90 in SSE 1.0 mph 5.0 mph 97 % 0.00 in
02:21 73.4 °F 72.5 °F 29.90 in South 1.0 mph 5.0 mph 97 % 0.00 in
02:26 73.4 °F 72.5 °F 29.90 in SSE 2.0 mph 5.0 mph 97 % 0.00 in
02:31 73.4 °F 72.5 °F 29.90 in SSE 2.0 mph 3.0 mph 97 % 0.00 in
02:36 73.4 °F 72.5 °F 29.90 in SSE 2.0 mph 3.0 mph 97 % 0.00 in
02:41 73.4 °F 72.9 °F 29.90 in South 1.0 mph 4.0 mph 98 % 0.00 in
02:46 73.4 °F 72.9 °F 29.90 in ESE 2.0 mph 4.0 mph 98 % 0.00 in
02:51 73.4 °F 72.9 °F 29.90 in ESE 2.0 mph 4.0 mph 98 % 0.00 in
02:56 73.4 °F 72.9 °F 29.91 in ESE 1.0 mph 3.0 mph 98 % 0.00 in
03:01 73.6 °F 73.0 °F 29.91 in ESE 2.0 mph 4.0 mph 98 % 0.00 in
03:06 73.6 °F 73.0 °F 29.91 in SSE 2.0 mph 4.0 mph 98 % 0.00 in
03:11 73.6 °F 73.0 °F 29.91 in Calm   4.0 mph 98 % 0.00 in
03:16 73.4 °F 72.9 °F 29.91 in SE 1.0 mph 4.0 mph 98 % 0.00 in
03:21 73.4 °F 72.9 °F 29.91 in SE 2.0 mph 4.0 mph 98 % 0.00 in
03:26 73.2 °F 72.7 °F 29.91 in SE 1.0 mph 4.0 mph 98 % 0.00 in
03:31 73.2 °F 72.7 °F 29.91 in SE 2.0 mph 3.0 mph 98 % 0.00 in
03:36 73.2 °F 72.7 °F 29.91 in ESE 1.0 mph 4.0 mph 98 % 0.00 in
03:41 73.2 °F 72.7 °F 29.91 in SSE 3.0 mph 4.0 mph 98 % 0.00 in
03:46 73.0 °F 72.5 °F 29.91 in ESE 3.0 mph 4.0 mph 98 % 0.00 in
03:51 73.0 °F 72.5 °F 29.91 in ESE 1.0 mph 3.0 mph 98 % 0.00 in
03:56 72.9 °F 72.3 °F 29.90 in SE 2.0 mph 3.0 mph 98 % 0.00 in
04:01 72.9 °F 72.3 °F 29.90 in SE 1.0 mph 3.0 mph 98 % 0.00 in
04:06 72.9 °F 72.3 °F 29.90 in SSE 1.0 mph 3.0 mph 98 % 0.00 in
04:11 72.7 °F 72.1 °F 29.91 in SE 2.0 mph 3.0 mph 98 % 0.00 in
04:16 72.7 °F 72.1 °F 29.91 in SSE 1.0 mph 3.0 mph 98 % 0.00 in
04:21 72.7 °F 72.1 °F 29.91 in SSE 1.0 mph 3.0 mph 98 % 0.00 in
04:26 72.5 °F 72.0 °F 29.91 in SSE 1.0 mph 3.0 mph 98 % 0.00 in
04:31 72.3 °F 71.8 °F 29.91 in SE 2.0 mph 3.0 mph 98 % 0.00 in
04:36 72.3 °F 71.8 °F 29.91 in SE 2.0 mph 3.0 mph 98 % 0.00 in
04:41 72.3 °F 71.8 °F 29.91 in SE 2.0 mph 2.0 mph 98 % 0.00 in
04:46 72.3 °F 71.8 °F 29.91 in Calm   2.0 mph 98 % 0.00 in
04:51 72.3 °F 71.8 °F 29.91 in ESE 2.0 mph 2.0 mph 98 % 0.00 in
04:56 72.3 °F 71.8 °F 29.91 in SSW 1.0 mph 3.0 mph 98 % 0.00 in
05:01 72.1 °F 71.8 °F 29.91 in SSE 1.0 mph 3.0 mph 99 % 0.00 in
05:06 72.1 °F 71.8 °F 29.91 in SSE 1.0 mph 3.0 mph 99 % 0.00 in
05:08 72.1 °F 71.8 °F 29.91 in Calm   3.0 mph 99 % 0.00 in
05:13 72.3 °F 72.0 °F 29.92 in SE 1.0 mph 3.0 mph 99 % 0.00 in
05:18 72.3 °F 72.0 °F 29.92 in ESE 1.0 mph 3.0 mph 99 % 0.00 in
05:23 72.3 °F 72.0 °F 29.92 in ESE 2.0 mph 3.0 mph 99 % 0.00 in
05:28 72.3 °F 72.0 °F 29.92 in Calm   3.0 mph 99 % 0.00 in
05:33 72.3 °F 72.0 °F 29.92 in SE 1.0 mph 3.0 mph 99 % 0.00 in
05:38 72.3 °F 72.0 °F 29.92 in SSE 1.0 mph 3.0 mph 99 % 0.00 in
05:43 72.5 °F 72.1 °F 29.92 in SE 1.0 mph 3.0 mph 99 % 0.00 in
05:48 72.5 °F 72.1 °F 29.92 in South 1.0 mph 3.0 mph 99 % 0.00 in
05:53 72.5 °F 72.1 °F 29.92 in South 1.0 mph 3.0 mph 99 % 0.00 in
05:58 72.7 °F 72.3 °F 29.92 in SE 3.0 mph 4.0 mph 99 % 0.00 in
05:59 72.7 °F 72.3 °F 29.92 in SSE 2.0 mph 4.0 mph 99 % 0.00 in
06:09 72.7 °F 72.3 °F 29.92 in SE 3.0 mph 4.0 mph 99 % 0.00 in
06:14 72.7 °F 72.3 °F 29.92 in SE 2.0 mph 4.0 mph 99 % 0.00 in
06:19 72.5 °F 72.1 °F 29.93 in SE 2.0 mph 3.0 mph 99 % 0.00 in
06:24 72.5 °F 72.1 °F 29.92 in SSE 1.0 mph 4.0 mph 99 % 0.00 in
06:29 72.5 °F 72.1 °F 29.92 in SE 2.0 mph 4.0 mph 99 % 0.00 in
06:34 72.5 °F 72.1 °F 29.92 in SSE 1.0 mph 5.0 mph 99 % 0.00 in
06:39 72.5 °F 72.1 °F 29.92 in SSE 1.0 mph 5.0 mph 99 % 0.00 in
06:44 72.5 °F 72.1 °F 29.92 in SE 3.0 mph 5.0 mph 99 % 0.00 in
06:49 72.5 °F 72.1 °F 29.92 in SSE 4.0 mph 4.0 mph 99 % 0.00 in
06:54 72.5 °F 72.1 °F 29.93 in South 1.0 mph 4.0 mph 99 % 0.00 in
06:59 72.5 °F 72.1 °F 29.93 in SE 2.0 mph 4.0 mph 99 % 0.00 in
07:04 72.5 °F 72.1 °F 29.93 in SSE 2.0 mph 4.0 mph 99 % 0.00 in
07:14 72.5 °F 72.1 °F 29.93 in SE 2.0 mph 4.0 mph 99 % 0.00 in
07:19 72.5 °F 72.1 °F 29.93 in SSE 1.0 mph 5.0 mph 99 % 0.00 in
07:24 72.5 °F 72.1 °F 29.93 in SSW 2.0 mph 5.0 mph 99 % 0.00 in
07:29 72.3 °F 72.0 °F 29.94 in South 2.0 mph 5.0 mph 99 % 0.00 in
07:34 72.5 °F 72.1 °F 29.94 in SSE 2.0 mph 4.0 mph 99 % 0.00 in
07:39 72.5 °F 72.1 °F 29.94 in SSE 1.0 mph 4.0 mph 99 % 0.00 in
07:44 72.5 °F 72.1 °F 29.94 in SSE 3.0 mph 4.0 mph 99 % 0.00 in
07:49 72.7 °F 72.3 °F 29.94 in SSE 3.0 mph 4.0 mph 99 % 0.00 in
07:54 72.7 °F 72.3 °F 29.94 in SSE 2.0 mph 4.0 mph 99 % 0.00 in
07:59 72.9 °F 72.5 °F 29.94 in SE 2.0 mph 5.0 mph 99 % 0.00 in
08:04 72.9 °F 72.5 °F 29.94 in South 2.0 mph 5.0 mph 99 % 0.00 in
08:09 72.9 °F 72.5 °F 29.94 in SE 2.0 mph 5.0 mph 99 % 0.00 in
08:14 73.0 °F 72.7 °F 29.95 in SSE 2.0 mph 5.0 mph 99 % 0.00 in
08:19 73.0 °F 72.7 °F 29.95 in SE 1.0 mph 5.0 mph 99 % 0.00 in
08:25 73.0 °F 72.7 °F 29.95 in SE 2.0 mph 4.0 mph 99 % 0.00 in
08:30 73.2 °F 72.9 °F 29.95 in SSW 2.0 mph 5.0 mph 99 % 0.00 in
08:35 73.2 °F 72.9 °F 29.95 in SSE 4.0 mph 5.0 mph 99 % 0.00 in
08:40 73.4 °F 73.0 °F 29.96 in SE 5.0 mph 5.0 mph 99 % 0.00 in
08:42 73.4 °F 73.0 °F 29.96 in ESE 5.0 mph 5.0 mph 99 % 0.00 in
08:47 73.6 °F 73.2 °F 29.96 in South 4.0 mph 6.0 mph 99 % 0.00 in
08:52 73.8 °F 73.4 °F 29.96 in SSE 3.0 mph 7.0 mph 99 % 0.00 in
08:57 73.8 °F 73.4 °F 29.96 in SSE 3.0 mph 7.0 mph 99 % 0.00 in
09:02 73.9 °F 73.6 °F 29.96 in SSE 1.0 mph 7.0 mph 99 % 0.00 in
09:07 74.1 °F 73.6 °F 29.96 in SSE 4.0 mph 6.0 mph 98 % 0.00 in
09:12 74.1 °F 73.6 °F 29.97 in SSW 4.0 mph 6.0 mph 98 % 0.00 in
09:18 74.5 °F 73.9 °F 29.97 in SE 4.0 mph 6.0 mph 98 % 0.00 in
09:23 74.8 °F 74.3 °F 29.97 in SSW 4.0 mph 8.0 mph 98 % 0.00 in
09:28 75.0 °F 74.5 °F 29.98 in South 5.0 mph 9.0 mph 98 % 0.00 in
09:33 75.2 °F 74.7 °F 29.98 in SSE 3.0 mph 10.0 mph 98 % 0.00 in
09:38 75.6 °F 74.7 °F 29.98 in SSW 3.0 mph 10.0 mph 97 % 0.00 in
09:43 75.9 °F 75.0 °F 29.98 in South 7.0 mph 10.0 mph 97 % 0.00 in
09:48 76.6 °F 75.4 °F 29.98 in SSE 6.0 mph 11.0 mph 96 % 0.00 in
09:53 77.0 °F 75.4 °F 29.98 in SSE 5.0 mph 11.0 mph 95 % 0.00 in
09:58 77.7 °F 75.9 °F 29.98 in SSE 7.0 mph 11.0 mph 94 % 0.00 in
10:03 77.7 °F 75.6 °F 29.99 in South 6.0 mph 10.0 mph 93 % 0.00 in
10:08 77.7 °F 75.6 °F 29.99 in SSE 5.0 mph 10.0 mph 93 % 0.00 in
10:13 77.9 °F 75.7 °F 29.99 in South 6.0 mph 11.0 mph 93 % 0.00 in
10:18 78.1 °F 75.6 °F 29.99 in WSW 5.0 mph 12.0 mph 92 % 0.00 in
10:23 78.1 °F 75.6 °F 29.99 in South 5.0 mph 12.0 mph 92 % 0.00 in
10:28 78.3 °F 75.7 °F 29.99 in SE 6.0 mph 12.0 mph 92 % 0.00 in
10:33 78.4 °F 75.9 °F 29.99 in ESE 7.0 mph 9.0 mph 92 % 0.00 in
10:38 78.8 °F 75.9 °F 29.99 in SSE 7.0 mph 12.0 mph 91 % 0.00 in
10:43 79.3 °F 76.5 °F 29.99 in SE 7.0 mph 15.0 mph 91 % 0.00 in
10:48 80.1 °F 76.5 °F 29.99 in SSW 3.0 mph 15.0 mph 89 % 0.00 in
10:53 80.8 °F 76.5 °F 29.99 in SE 6.0 mph 15.0 mph 87 % 0.00 in
10:58 81.0 °F 76.6 °F 29.98 in SSW 9.0 mph 10.0 mph 87 % 0.00 in
11:03 80.8 °F 76.3 °F 29.99 in SSW 6.0 mph 12.0 mph 86 % 0.00 in
11:08 80.8 °F 76.5 °F 29.99 in SSW 5.0 mph 12.0 mph 87 % 0.00 in
11:13 81.3 °F 76.6 °F 29.99 in South 7.0 mph 12.0 mph 86 % 0.00 in
11:18 81.9 °F 76.8 °F 29.99 in South 5.0 mph 12.0 mph 85 % 0.00 in
11:23 82.8 °F 77.4 °F 29.98 in SSE 5.0 mph 12.0 mph 84 % 0.00 in
11:28 83.5 °F 77.4 °F 29.99 in SSW 1.0 mph 12.0 mph 82 % 0.00 in
11:33 83.1 °F 76.3 °F 29.99 in SSW 3.0 mph 12.0 mph 80 % 0.00 in
11:38 82.8 °F 76.3 °F 29.99 in SW 5.0 mph 15.0 mph 81 % 0.00 in
11:43 82.8 °F 76.3 °F 29.99 in SSW 2.0 mph 15.0 mph 81 % 0.00 in
11:48 82.9 °F 76.1 °F 29.99 in SSW 5.0 mph 15.0 mph 80 % 0.00 in
11:53 83.1 °F 75.9 °F 29.98 in South 5.0 mph 12.0 mph 79 % 0.00 in
11:58 83.8 °F 77.0 °F 29.98 in SW 4.0 mph 13.0 mph 80 % 0.00 in
12:03 84.0 °F 76.5 °F 29.98 in SSE 8.0 mph 13.0 mph 78 % 0.00 in
12:08 83.8 °F 75.9 °F 29.98 in SSE 6.0 mph 13.0 mph 77 % 0.00 in
12:13 83.5 °F 76.3 °F 29.98 in South 4.0 mph 13.0 mph 79 % 0.00 in
12:18 83.5 °F 75.9 °F 29.98 in SSW 6.0 mph 13.0 mph 78 % 0.00 in
12:23 83.5 °F 75.9 °F 29.98 in SW 3.0 mph 11.0 mph 78 % 0.00 in
12:29 83.7 °F 75.7 °F 29.98 in SSE 7.0 mph 11.0 mph 77 % 0.00 in
12:34 84.0 °F 76.1 °F 29.98 in South 6.0 mph 14.0 mph 77 % 0.00 in
12:39 84.0 °F 75.6 °F 29.98 in SW 9.0 mph 14.0 mph 76 % 0.00 in
12:44 84.7 °F 75.9 °F 29.97 in South 5.0 mph 14.0 mph 75 % 0.00 in
12:49 85.5 °F 75.7 °F 29.97 in SSE 9.0 mph 14.0 mph 73 % 0.00 in
12:54 85.5 °F 75.7 °F 29.97 in South 10.0 mph 13.0 mph 73 % 0.00 in
12:59 85.6 °F 75.6 °F 29.97 in SSW 5.0 mph 13.0 mph 72 % 0.00 in
13:04 85.6 °F 75.2 °F 29.96 in South 6.0 mph 13.0 mph 71 % 0.00 in
13:09 85.8 °F 75.4 °F 29.96 in South 4.0 mph 14.0 mph 71 % 0.00 in
13:14 86.4 °F 76.3 °F 29.96 in SE 2.0 mph 15.0 mph 72 % 0.00 in
13:19 86.5 °F 75.9 °F 29.96 in South 4.0 mph 15.0 mph 71 % 0.00 in
13:24 86.7 °F 75.7 °F 29.95 in SSW 5.0 mph 15.0 mph 70 % 0.00 in
13:29 86.5 °F 75.6 °F 29.95 in SSW 5.0 mph 14.0 mph 70 % 0.00 in
13:34 86.2 °F 75.7 °F 29.95 in SSW 3.0 mph 14.0 mph 71 % 0.00 in
13:39 85.8 °F 75.4 °F 29.94 in SW 3.0 mph 13.0 mph 71 % 0.00 in
13:44 86.4 °F 75.9 °F 29.94 in SSW 11.0 mph 13.0 mph 71 % 0.00 in
13:47 86.5 °F 75.2 °F 29.94 in SSW 9.0 mph 13.0 mph 69 % 0.00 in
13:52 87.1 °F 75.7 °F 29.94 in SSE 8.0 mph 13.0 mph 69 % 0.00 in
13:57 87.3 °F 75.0 °F 29.93 in South 7.0 mph 14.0 mph 67 % 0.00 in
14:02 87.4 °F 75.9 °F 29.93 in SW 4.0 mph 15.0 mph 69 % 0.00 in
14:07 87.6 °F 74.8 °F 29.93 in SSW 8.0 mph 15.0 mph 66 % 0.00 in
14:12 87.6 °F 74.8 °F 29.93 in SSE 7.0 mph 18.0 mph 66 % 0.00 in
14:17 87.6 °F 73.9 °F 29.93 in South 11.0 mph 22.0 mph 64 % 0.00 in
14:22 88.0 °F 74.3 °F 29.92 in South 11.0 mph 22.0 mph 64 % 0.00 in
14:27 88.5 °F 74.8 °F 29.93 in SSE 8.0 mph 22.0 mph 64 % 0.00 in
14:32 88.3 °F 74.7 °F 29.92 in SSE 3.0 mph 16.0 mph 64 % 0.00 in
14:37 88.3 °F 74.1 °F 29.92 in SSW 10.0 mph 15.0 mph 63 % 0.00 in
14:42 88.3 °F 74.7 °F 29.93 in SW 2.0 mph 15.0 mph 64 % 0.00 in
14:47 88.2 °F 74.8 °F 29.93 in South 4.0 mph 14.0 mph 65 % 0.00 in
14:52 88.3 °F 75.0 °F 29.92 in South 2.0 mph 12.0 mph 65 % 0.00 in
14:57 88.0 °F 73.8 °F 29.93 in SW 3.0 mph 12.0 mph 63 % 0.00 in
15:02 88.3 °F 74.7 °F 29.92 in SSW 5.0 mph 15.0 mph 64 % 0.00 in
15:07 88.5 °F 74.8 °F 29.92 in SE 4.0 mph 15.0 mph 64 % 0.00 in
15:12 88.9 °F 75.2 °F 29.93 in SSW 4.0 mph 15.0 mph 64 % 0.00 in
15:17 89.1 °F 74.8 °F 29.92 in SSE 9.0 mph 13.0 mph 63 % 0.00 in
15:22 88.5 °F 74.3 °F 29.92 in SW 6.0 mph 17.0 mph 63 % 0.00 in
15:27 88.0 °F 74.3 °F 29.93 in South 4.0 mph 17.0 mph 64 % 0.00 in
15:32 88.0 °F 75.2 °F 29.92 in South 3.0 mph 17.0 mph 66 % 0.00 in
15:37 88.0 °F 74.7 °F 29.92 in SSW 5.0 mph 12.0 mph 65 % 0.00 in
15:42 88.2 °F 74.8 °F 29.92 in South 5.0 mph 11.0 mph 65 % 0.00 in
15:47 88.2 °F 73.9 °F 29.92 in South 5.0 mph 11.0 mph 63 % 0.00 in
15:52 88.0 °F 74.3 °F 29.92 in South 3.0 mph 15.0 mph 64 % 0.00 in
15:57 88.0 °F 74.3 °F 29.92 in SE 5.0 mph 15.0 mph 64 % 0.00 in
16:02 88.0 °F 74.3 °F 29.92 in South 7.0 mph 15.0 mph 64 % 0.00 in
16:07 87.4 °F 73.8 °F 29.92 in SSE 5.0 mph 14.0 mph 64 % 0.00 in
16:12 87.4 °F 73.8 °F 29.93 in SSE 4.0 mph 14.0 mph 64 % 0.00 in
16:17 87.4 °F 74.3 °F 29.93 in SSE 6.0 mph 14.0 mph 65 % 0.00 in
16:22 87.3 °F 74.1 °F 29.92 in South 6.0 mph 14.0 mph 65 % 0.00 in
16:27 86.9 °F 74.1 °F 29.92 in South 8.0 mph 14.0 mph 66 % 0.00 in
16:32 86.7 °F 73.9 °F 29.92 in South 9.0 mph 14.0 mph 66 % 0.00 in
16:37 86.7 °F 73.9 °F 29.92 in SSW 9.0 mph 14.0 mph 66 % 0.00 in
16:42 86.7 °F 73.9 °F 29.93 in SSW 2.0 mph 14.0 mph 66 % 0.00 in
16:47 86.9 °F 74.1 °F 29.92 in South 4.0 mph 12.0 mph 66 % 0.00 in
16:52 86.9 °F 74.1 °F 29.92 in WSW 4.0 mph 12.0 mph 66 % 0.00 in
16:57 86.7 °F 73.9 °F 29.92 in SSE 7.0 mph 14.0 mph 66 % 0.00 in
17:02 86.5 °F 73.4 °F 29.93 in SE 5.0 mph 14.0 mph 65 % 0.00 in
17:07 86.4 °F 73.6 °F 29.93 in SSE 5.0 mph 14.0 mph 66 % 0.00 in
17:12 86.2 °F 73.4 °F 29.93 in SSW 3.0 mph 14.0 mph 66 % 0.00 in
17:17 86.0 °F 73.8 °F 29.93 in SSW 6.0 mph 11.0 mph 67 % 0.00 in
17:23 85.6 °F 73.9 °F 29.93 in South 4.0 mph 13.0 mph 68 % 0.00 in
17:28 85.5 °F 73.8 °F 29.93 in South 5.0 mph 13.0 mph 68 % 0.00 in
17:33 85.3 °F 73.9 °F 29.93 in SSW 9.0 mph 13.0 mph 69 % 0.00 in
17:38 84.9 °F 73.6 °F 29.93 in SSE 2.0 mph 13.0 mph 69 % 0.00 in
17:43 84.7 °F 73.4 °F 29.93 in SSW 2.0 mph 12.0 mph 69 % 0.00 in
17:48 84.6 °F 73.8 °F 29.93 in South 2.0 mph 12.0 mph 70 % 0.00 in
17:53 84.4 °F 73.6 °F 29.93 in SW 4.0 mph 9.0 mph 70 % 0.00 in
17:58 84.2 °F 73.8 °F 29.93 in Calm   8.0 mph 71 % 0.00 in
18:03 84.0 °F 73.6 °F 29.93 in SSE 4.0 mph 8.0 mph 71 % 0.00 in
18:08 83.8 °F 73.8 °F 29.94 in SSW 2.0 mph 9.0 mph 72 % 0.00 in
18:13 83.7 °F 73.6 °F 29.94 in SW 2.0 mph 9.0 mph 72 % 0.00 in
18:18 83.5 °F 73.9 °F 29.94 in SSE 5.0 mph 11.0 mph 73 % 0.00 in
18:23 83.1 °F 73.6 °F 29.94 in South 6.0 mph 11.0 mph 73 % 0.00 in
18:28 82.9 °F 73.8 °F 29.94 in SW 2.0 mph 11.0 mph 74 % 0.00 in
18:33 82.8 °F 73.9 °F 29.94 in SSW 5.0 mph 10.0 mph 75 % 0.00 in
18:38 82.8 °F 73.9 °F 29.94 in South 4.0 mph 10.0 mph 75 % 0.00 in
18:43 82.6 °F 73.8 °F 29.95 in SSW 3.0 mph 9.0 mph 75 % 0.00 in
18:48 82.2 °F 73.6 °F 29.95 in South 4.0 mph 9.0 mph 75 % 0.00 in
18:53 82.2 °F 73.6 °F 29.95 in SSE 3.0 mph 9.0 mph 75 % 0.00 in
18:58 82.0 °F 73.4 °F 29.95 in SSW 5.0 mph 9.0 mph 75 % 0.00 in
19:03 82.0 °F 73.8 °F 29.95 in SSE 4.0 mph 9.0 mph 76 % 0.00 in
19:08 81.9 °F 73.6 °F 29.95 in South 5.0 mph 9.0 mph 76 % 0.00 in
19:13 81.7 °F 73.8 °F 29.96 in SSW 1.0 mph 9.0 mph 77 % 0.00 in
19:18 81.3 °F 73.8 °F 29.96 in South 5.0 mph 7.0 mph 78 % 0.00 in
19:23 81.1 °F 73.9 °F 29.96 in ESE 3.0 mph 6.0 mph 79 % 0.00 in
19:34 80.8 °F 73.9 °F 29.96 in South 2.0 mph 8.0 mph 80 % 0.00 in
19:39 80.8 °F 73.9 °F 29.96 in ESE 6.0 mph 9.0 mph 80 % 0.00 in
19:42 80.4 °F 73.8 °F 29.97 in SSE 5.0 mph 11.0 mph 80 % 0.00 in
19:47 80.4 °F 73.8 °F 29.97 in SE 5.0 mph 11.0 mph 80 % 0.00 in
19:52 80.2 °F 73.9 °F 29.97 in SSW 4.0 mph 12.0 mph 81 % 0.00 in
19:57 80.1 °F 73.8 °F 29.97 in SSE 3.0 mph 12.0 mph 81 % 0.00 in
20:02 80.1 °F 73.8 °F 29.97 in SE 5.0 mph 12.0 mph 81 % 0.00 in
20:07 79.9 °F 73.6 °F 29.97 in SSE 3.0 mph 12.0 mph 81 % 0.00 in
20:12 79.7 °F 73.8 °F 29.98 in South 5.0 mph 12.0 mph 82 % 0.00 in
20:17 79.5 °F 73.6 °F 29.98 in SSE 4.0 mph 10.0 mph 82 % 0.00 in
20:22 79.3 °F 73.8 °F 29.98 in South 3.0 mph 8.0 mph 83 % 0.00 in
20:27 79.2 °F 73.6 °F 29.98 in SSE 3.0 mph 8.0 mph 83 % 0.00 in
20:32 79.2 °F 73.6 °F 29.97 in SSE 5.0 mph 8.0 mph 83 % 0.00 in
20:38 79.0 °F 73.8 °F 29.97 in South 8.0 mph 8.0 mph 84 % 0.00 in
20:43 79.0 °F 73.8 °F 29.97 in SSE 6.0 mph 11.0 mph 84 % 0.00 in
20:48 78.8 °F 73.6 °F 29.98 in SSE 3.0 mph 11.0 mph 84 % 0.00 in
20:53 78.6 °F 73.4 °F 29.98 in SSW 2.0 mph 11.0 mph 84 % 0.00 in
20:58 78.4 °F 73.6 °F 29.98 in SE 5.0 mph 10.0 mph 85 % 0.00 in
21:03 78.4 °F 73.6 °F 29.98 in SSE 6.0 mph 9.0 mph 85 % 0.00 in
21:08 78.3 °F 73.8 °F 29.99 in South 8.0 mph 8.0 mph 86 % 0.00 in
21:13 78.3 °F 74.1 °F 29.99 in SSE 2.0 mph 9.0 mph 87 % 0.00 in
21:18 78.1 °F 73.9 °F 29.99 in SSE 4.0 mph 9.0 mph 87 % 0.00 in
21:23 78.1 °F 74.3 °F 29.99 in SE 3.0 mph 9.0 mph 88 % 0.00 in
21:28 77.7 °F 74.3 °F 29.99 in SSE 4.0 mph 7.0 mph 89 % 0.00 in
21:33 77.7 °F 74.3 °F 29.99 in SSE 4.0 mph 10.0 mph 89 % 0.00 in
21:38 77.5 °F 74.1 °F 29.99 in South 3.0 mph 10.0 mph 89 % 0.00 in
21:43 77.5 °F 74.3 °F 29.99 in SE 4.0 mph 10.0 mph 90 % 0.00 in
21:48 77.4 °F 74.1 °F 30.00 in SSE 4.0 mph 8.0 mph 90 % 0.00 in
21:53 77.4 °F 74.5 °F 30.00 in SSE 5.0 mph 8.0 mph 91 % 0.00 in
21:58 77.2 °F 74.3 °F 30.00 in SSE 7.0 mph 8.0 mph 91 % 0.00 in
22:03 77.2 °F 74.3 °F 30.00 in South 5.0 mph 8.0 mph 91 % 0.00 in
22:08 77.2 °F 74.3 °F 30.00 in SSE 5.0 mph 10.0 mph 91 % 0.00 in
22:14 77.0 °F 74.5 °F 30.00 in SE 6.0 mph 10.0 mph 92 % 0.00 in
22:19 76.8 °F 74.3 °F 30.00 in SE 7.0 mph 10.0 mph 92 % 0.00 in
22:20 76.8 °F 74.3 °F 30.00 in SE 3.0 mph 10.0 mph 92 % 0.00 in
22:23 76.8 °F 74.3 °F 30.00 in SSE 3.0 mph 10.0 mph 92 % 0.00 in
22:28 76.8 °F 74.7 °F 30.00 in SSE 2.0 mph 10.0 mph 93 % 0.00 in
22:29 76.8 °F 74.7 °F 30.00 in SSW 3.0 mph 10.0 mph 93 % 0.00 in
22:34 76.8 °F 74.7 °F 30.00 in South 5.0 mph 10.0 mph 93 % 0.00 in
22:39 76.8 °F 74.7 °F 30.00 in SSW 6.0 mph 10.0 mph 93 % 0.00 in
22:44 76.8 °F 74.7 °F 30.01 in South 7.0 mph 12.0 mph 93 % 0.00 in
22:49 76.8 °F 74.7 °F 30.01 in SSE 1.0 mph 12.0 mph 93 % 0.00 in
22:54 76.6 °F 74.5 °F 30.01 in South 3.0 mph 12.0 mph 93 % 0.00 in
22:59 76.6 °F 74.5 °F 30.01 in SSE 5.0 mph 10.0 mph 93 % 0.00 in
23:04 76.6 °F 74.5 °F 30.02 in ESE 4.0 mph 7.0 mph 93 % 0.00 in
23:09 76.6 °F 74.5 °F 30.02 in SSE 6.0 mph 7.0 mph 93 % 0.00 in
23:14 76.5 °F 74.7 °F 30.02 in SSE 2.0 mph 8.0 mph 94 % 0.00 in
23:19 76.5 °F 74.7 °F 30.02 in SE 4.0 mph 8.0 mph 94 % 0.00 in
23:24 76.3 °F 74.5 °F 30.02 in East 4.0 mph 8.0 mph 94 % 0.00 in
23:29 76.3 °F 74.5 °F 30.02 in SSE 2.0 mph 7.0 mph 94 % 0.00 in
23:34 76.1 °F 74.3 °F 30.02 in SSE 3.0 mph 7.0 mph 94 % 0.00 in
23:39 75.9 °F 74.1 °F 30.02 in SSE 3.0 mph 5.0 mph 94 % 0.00 in
23:44 75.9 °F 74.3 °F 30.03 in SE 5.0 mph 5.0 mph 95 % 0.00 in
23:49 75.9 °F 74.3 °F 30.02 in SE 2.0 mph 6.0 mph 95 % 0.00 in
23:54 75.9 °F 74.3 °F 30.02 in SE 3.0 mph 7.0 mph 95 % 0.00 in
23:59 75.9 °F 74.3 °F 30.02 in SE 3.0 mph 7.0 mph 95 % 0.00 in
Spring, Texas: Villages of Bridgestone
Compliments of Weather Underground - 2.75 mb

Script developed by  Jim McMurry - jmcmurry@mwt.net Adapted for the template by  Wim van der Kuil - Leuven-Template.eu

You find our weather info also at:

UK Metoffice

WeatherCloud

Weather Underground

Mid-South Weather Network

AWEKAS

Citizen Weather Observer Program (CWOP)

HAMweather, WeatherForYou, PWS Weather

Equipment we use:

Weather-station
Davis Vantage Vue

Weather-program
Meteohub

Weather-server
Debian 7.9 x86 (Guest)

Provider
DreamHost

Davis Vantage Vue

Meteohub

Debian 7.9 x86 (Guest)

DreamHost